Springfield, IL (62712)

05:44 AM CDT del 27 Marzo 2017 (GMT -0500)
Oak Hill | | Change Station

Alt. 581 ft 39.74 °N, 89.56 °W | Updated 40 seconds ago

Molto nuvoloso
Molto nuvoloso
45.2 °F
Sembra 45 °F
N
0.0
Vento Variabile Vento da ENE

Oggi
Massima -- | Minima -- °F
--% Possibilità di precip.
Ieri
Massima -- | Minima -- °F
Precip. -- in
Pressione 29.91 in
Visibilità 4.0 miglia
Nuvole Sereno
Raffreddamento del vento 45 °F
Punto di rugiada 45 °F
Umidità 98%
Piovosità 0.00 in
Spessore del manto nevoso Non disponibile.
6:50 AM 7:17 PM
Luna calante, 1% visible
METAR KSPI 270952Z AUTO 08003KT 4SM BR CLR 08/07 A2991 RMK AO2 SLP128 T00780067
Pressione 29.91 in
Visibilità 4.0 miglia
Nuvole Sereno
Raffreddamento del vento 45 °F
Punto di rugiada 45 °F
Umidità 98%
Piovosità 0.00 in
Spessore del manto nevoso Non disponibile.
6:50 AM 7:17 PM
Luna calante, 1% visible
METAR KSPI 270952Z AUTO 08003KT 4SM BR CLR 08/07 A2991 RMK AO2 SLP128 T00780067

Get Severe Weather Alerts

Thanks for signing up!

Be on the lookout for a verification email in your inbox.

You'll start receiving the daily forecast at 8 AM.

×

10-Day Weather Forecast

Almanac

Astronomia

Mar. 27, 2017 Alba Tramonto
Ora attuale
Crepuscolo civile
Crepuscolo nautico
Crepuscolo astronomico
Luna
Estensione della luce visibile
Lunghezza del giorno
Tomorrow will be .
, % of the Moon is Illuminated

Gli estremi di oggi

State Highs State Lows

Community

WunderPhotos

Upload Photos

1,962,540 foto caricate!

WunderBlog® & News

Nearby

Qualità dell'aria

  Qualità dell'aria Indice AQ Inquinante
Not available.

Profondità neve

Stazione Profondità Altitudine

Attività sismica

Città  Distanza Mag. Data & Ora
Minimo Magnitudo Mostrato è 2.5.

Attività sismica

Città  Distanza Mag. Data & Ora
Minimo Magnitudo Mostrato è 2.5.

Temperature delle acque costiere

Località Temperatura

Stations

Stazioni meteo nelle vicinanze

Ubicazione della stazione Temp. Raffreddamento del vento Punto di rugiada Umidità Vento Precip. Alt. Aggiornato Tipo
                   

Watches & Warnings

There are currently no watches in effect.